DLH44K LEMD-EDDF
Flight info
| Callsign | DLH44K |
|---|---|
| Flight time | N/A |
| Altitude | 35000 |
| Route | RBO4N RBO N867 DGO N858 ABRIX DCT CNA DCT ADABI DCT BOKNO DCT DIBES DCT VIQAQ DCT TSU UN858 OQQAL DCT RANUX DCT VALEK DCT LIPNI DCT LIMGO Z111 RAMOB RASVO2C |
| Aircraft | A321/M-SDE3FGHIRWY/LB1 |
Departure
| Time | 2026-05-08 05:17 |
|---|---|
| Airport | Adolfo Suárez Madrid–Barajas Airport (LEMD) |
Arrival
| Time | N/A |
|---|---|
| Airport | Frankfurt Main Airport (EDDF) |
| Time | Latitude | Longitude | Altitude | Speed | Heading |
|---|---|---|---|---|---|
| 2026-05-08 05:00 | 40.47053 | -3.56668 | 1979 ft | 0 kts | 231° |
| 2026-05-08 05:04 | 40.47057 | -3.56662 | 1981 ft | 4 kts | 232° |
| 2026-05-08 05:05 | 40.47072 | -3.56632 | 1980 ft | 4 kts | 244° |
| 2026-05-08 05:05 | 40.47080 | -3.56600 | 1979 ft | 4 kts | 270° |
| 2026-05-08 05:05 | 40.47074 | -3.56574 | 1978 ft | 3 kts | 334° |
| 2026-05-08 05:05 | 40.47072 | -3.56572 | 1980 ft | 0 kts | 337° |
| 2026-05-08 05:08 | 40.47074 | -3.56573 | 1978 ft | 1 kts | 337° |
| 2026-05-08 05:09 | 40.47084 | -3.56579 | 1979 ft | 2 kts | 337° |
| 2026-05-08 05:09 | 40.47110 | -3.56595 | 1979 ft | 5 kts | 332° |
| 2026-05-08 05:09 | 40.47143 | -3.56623 | 1981 ft | 6 kts | 324° |
| 2026-05-08 05:09 | 40.47180 | -3.56659 | 1981 ft | 7 kts | 323° |
| 2026-05-08 05:10 | 40.47224 | -3.56703 | 1983 ft | 8 kts | 323° |
| 2026-05-08 05:10 | 40.47312 | -3.56792 | 1985 ft | 10 kts | 323° |
| 2026-05-08 05:10 | 40.47375 | -3.56781 | 1987 ft | 11 kts | 30° |
| 2026-05-08 05:11 | 40.47448 | -3.56813 | 1990 ft | 13 kts | 323° |
| 2026-05-08 05:11 | 40.47524 | -3.56888 | 1992 ft | 14 kts | 322° |
| 2026-05-08 05:11 | 40.47610 | -3.56976 | 1994 ft | 17 kts | 322° |
| 2026-05-08 05:11 | 40.47709 | -3.57078 | 1997 ft | 18 kts | 322° |
| 2026-05-08 05:12 | 40.47808 | -3.57178 | 2001 ft | 17 kts | 322° |
| 2026-05-08 05:12 | 40.47901 | -3.57272 | 2004 ft | 16 kts | 322° |
| 2026-05-08 05:12 | 40.47990 | -3.57363 | 2004 ft | 18 kts | 322° |
| 2026-05-08 05:12 | 40.48102 | -3.57478 | 2001 ft | 23 kts | 322° |
| 2026-05-08 05:13 | 40.48232 | -3.57610 | 1997 ft | 25 kts | 322° |
| 2026-05-08 05:13 | 40.48366 | -3.57744 | 1992 ft | 23 kts | 324° |
| 2026-05-08 05:13 | 40.48504 | -3.57853 | 1994 ft | 23 kts | 332° |
| 2026-05-08 05:13 | 40.48631 | -3.57923 | 1999 ft | 19 kts | 354° |
| 2026-05-08 05:14 | 40.48763 | -3.57925 | 1997 ft | 19 kts | 0° |
| 2026-05-08 05:14 | 40.48901 | -3.57927 | 1997 ft | 20 kts | 359° |
| 2026-05-08 05:14 | 40.49041 | -3.57928 | 1998 ft | 20 kts | 359° |
| 2026-05-08 05:14 | 40.49156 | -3.57912 | 1997 ft | 15 kts | 38° |
| 2026-05-08 05:15 | 40.49171 | -3.57759 | 1991 ft | 19 kts | 89° |
| 2026-05-08 05:15 | 40.49176 | -3.57623 | 1990 ft | 7 kts | 78° |
| 2026-05-08 05:15 | 40.49178 | -3.57614 | 1989 ft | 1 kts | 76° |
| 2026-05-08 05:15 | 40.49187 | -3.57581 | 1987 ft | 7 kts | 68° |
| 2026-05-08 05:16 | 40.49216 | -3.57501 | 1986 ft | 12 kts | 64° |
| 2026-05-08 05:16 | 40.49273 | -3.57452 | 1983 ft | 9 kts | 0° |
| 2026-05-08 05:16 | 40.49347 | -3.57452 | 1983 ft | 25 kts | 0° |
| 2026-05-08 05:16 | 40.49752 | -3.57451 | 1985 ft | 89 kts | 360° |
| 2026-05-08 05:17 | 40.50564 | -3.57462 | 1993 ft | 143 kts | 359° |
| 2026-05-08 05:17 | 40.51719 | -3.57473 | 2029 ft | 185 kts | 359° |
| 2026-05-08 05:17 | 40.53023 | -3.57494 | 2583 ft | 188 kts | 359° |
| 2026-05-08 05:17 | 40.54335 | -3.57513 | 3257 ft | 190 kts | 359° |
| 2026-05-08 05:18 | 40.55699 | -3.57347 | 3522 ft | 207 kts | 13° |
| 2026-05-08 05:18 | 40.57164 | -3.56836 | 3668 ft | 228 kts | 16° |
| 2026-05-08 05:18 | 40.58759 | -3.56211 | 3815 ft | 251 kts | 17° |
| 2026-05-08 05:18 | 40.60453 | -3.55536 | 4231 ft | 262 kts | 17° |
| 2026-05-08 05:19 | 40.62219 | -3.54840 | 4841 ft | 267 kts | 17° |
| 2026-05-08 05:19 | 40.64034 | -3.54243 | 5435 ft | 272 kts | 7° |
| 2026-05-08 05:19 | 40.65939 | -3.54045 | 6043 ft | 276 kts | 4° |
| 2026-05-08 05:19 | 40.67869 | -3.53841 | 6661 ft | 280 kts | 10° |
| 2026-05-08 05:20 | 40.69723 | -3.53069 | 7251 ft | 283 kts | 28° |
| 2026-05-08 05:20 | 40.71316 | -3.51558 | 7853 ft | 284 kts | 46° |
| 2026-05-08 05:20 | 40.72529 | -3.49496 | 8448 ft | 286 kts | 57° |
| 2026-05-08 05:20 | 40.73659 | -3.47308 | 9058 ft | 289 kts | 56° |
| 2026-05-08 05:21 | 40.74799 | -3.45111 | 9644 ft | 292 kts | 56° |
| 2026-05-08 05:21 | 40.75954 | -3.42887 | 10205 ft | 297 kts | 56° |
| 2026-05-08 05:21 | 40.77164 | -3.40557 | 10343 ft | 318 kts | 56° |
| 2026-05-08 05:21 | 40.78448 | -3.38079 | 10472 ft | 336 kts | 56° |
| 2026-05-08 05:22 | 40.79801 | -3.35466 | 10603 ft | 353 kts | 56° |
| 2026-05-08 05:22 | 40.81221 | -3.32728 | 10730 ft | 368 kts | 56° |
| 2026-05-08 05:22 | 40.82691 | -3.29883 | 10900 ft | 379 kts | 56° |
| 2026-05-08 05:22 | 40.84193 | -3.26979 | 11252 ft | 386 kts | 56° |
| 2026-05-08 05:23 | 40.85738 | -3.24067 | 11707 ft | 389 kts | 51° |
| 2026-05-08 05:23 | 40.87724 | -3.21718 | 12170 ft | 393 kts | 32° |
| 2026-05-08 05:23 | 40.90257 | -3.20378 | 12613 ft | 396 kts | 11° |
| 2026-05-08 05:23 | 40.93005 | -3.20305 | 13056 ft | 398 kts | 349° |
| 2026-05-08 05:24 | 40.95712 | -3.21140 | 13501 ft | 401 kts | 348° |
| 2026-05-08 05:24 | 40.98491 | -3.21506 | 13942 ft | 404 kts | 1° |
| 2026-05-08 05:24 | 41.01296 | -3.21127 | 14382 ft | 407 kts | 7° |
| 2026-05-08 05:24 | 41.04109 | -3.20584 | 14811 ft | 410 kts | 8° |
| 2026-05-08 05:25 | 41.06923 | -3.19964 | 15233 ft | 412 kts | 9° |
| 2026-05-08 05:25 | 41.09757 | -3.19295 | 15661 ft | 415 kts | 10° |
| 2026-05-08 05:25 | 41.12608 | -3.18610 | 16072 ft | 417 kts | 9° |
| 2026-05-08 05:25 | 41.15476 | -3.17929 | 16469 ft | 420 kts | 9° |
| 2026-05-08 05:26 | 41.18361 | -3.17258 | 16858 ft | 422 kts | 9° |
| 2026-05-08 05:26 | 41.21263 | -3.16599 | 17228 ft | 424 kts | 9° |
| 2026-05-08 05:26 | 41.24190 | -3.15944 | 17593 ft | 427 kts | 8° |
| 2026-05-08 05:26 | 41.27126 | -3.15289 | 17950 ft | 430 kts | 9° |
| 2026-05-08 05:27 | 41.30088 | -3.14626 | 18307 ft | 432 kts | 9° |
| 2026-05-08 05:27 | 41.32052 | -3.14183 | 18546 ft | 433 kts | 9° |
| 2026-05-08 05:27 | 41.35032 | -3.13510 | 18914 ft | 435 kts | 9° |
| 2026-05-08 05:27 | 41.38024 | -3.12831 | 19272 ft | 437 kts | 9° |
| 2026-05-08 05:28 | 41.42009 | -3.11926 | 19719 ft | 440 kts | 9° |
| 2026-05-08 05:28 | 41.45032 | -3.11238 | 20063 ft | 442 kts | 9° |
| 2026-05-08 05:28 | 41.47087 | -3.10770 | 20295 ft | 443 kts | 9° |
| 2026-05-08 05:28 | 41.50131 | -3.10076 | 20625 ft | 445 kts | 9° |
| 2026-05-08 05:29 | 41.53196 | -3.09380 | 20948 ft | 447 kts | 8° |
| 2026-05-08 05:29 | 41.56270 | -3.08684 | 21261 ft | 449 kts | 8° |
| 2026-05-08 05:29 | 41.59355 | -3.07986 | 21573 ft | 451 kts | 8° |
| 2026-05-08 05:29 | 41.62418 | -3.07291 | 21876 ft | 453 kts | 8° |
| 2026-05-08 05:30 | 41.65529 | -3.06585 | 22173 ft | 455 kts | 8° |
| 2026-05-08 05:30 | 41.68652 | -3.05876 | 22470 ft | 456 kts | 8° |
| 2026-05-08 05:30 | 41.71792 | -3.05162 | 22752 ft | 458 kts | 8° |
| 2026-05-08 05:30 | 41.74941 | -3.04443 | 23038 ft | 460 kts | 8° |
| 2026-05-08 05:31 | 41.78099 | -3.03720 | 23324 ft | 461 kts | 8° |
| 2026-05-08 05:31 | 41.81271 | -3.02989 | 23597 ft | 463 kts | 9° |
| 2026-05-08 05:31 | 41.84447 | -3.02255 | 23872 ft | 465 kts | 8° |
| 2026-05-08 05:31 | 41.87644 | -3.01513 | 24152 ft | 467 kts | 8° |
| 2026-05-08 05:32 | 41.90850 | -3.00769 | 24418 ft | 468 kts | 8° |
| 2026-05-08 05:32 | 41.94067 | -3.00024 | 24661 ft | 470 kts | 8° |
| 2026-05-08 05:32 | 41.97292 | -2.99277 | 24890 ft | 471 kts | 8° |
| 2026-05-08 05:32 | 42.00527 | -2.98528 | 25106 ft | 473 kts | 8° |
| 2026-05-08 05:33 | 42.03771 | -2.97777 | 25321 ft | 474 kts | 8° |
| 2026-05-08 05:33 | 42.06983 | -2.97030 | 25559 ft | 474 kts | 8° |
| 2026-05-08 05:33 | 42.10232 | -2.96272 | 25766 ft | 475 kts | 8° |
| 2026-05-08 05:33 | 42.13493 | -2.95508 | 26014 ft | 474 kts | 8° |
| 2026-05-08 05:34 | 42.16741 | -2.94751 | 26277 ft | 474 kts | 8° |
| 2026-05-08 05:34 | 42.19987 | -2.93996 | 26533 ft | 473 kts | 8° |
| 2026-05-08 05:34 | 42.23237 | -2.93243 | 26785 ft | 473 kts | 8° |
| 2026-05-08 05:34 | 42.26474 | -2.92494 | 27044 ft | 472 kts | 8° |
| 2026-05-08 05:35 | 42.29710 | -2.91743 | 27290 ft | 472 kts | 8° |
| 2026-05-08 05:35 | 42.32946 | -2.90990 | 27527 ft | 471 kts | 8° |
| 2026-05-08 05:35 | 42.36179 | -2.90232 | 27776 ft | 471 kts | 8° |
| 2026-05-08 05:35 | 42.39405 | -2.89470 | 28024 ft | 470 kts | 8° |
| 2026-05-08 05:36 | 42.42620 | -2.88683 | 28248 ft | 470 kts | 11° |
| 2026-05-08 05:36 | 42.45766 | -2.87409 | 28484 ft | 473 kts | 19° |
| 2026-05-08 05:36 | 42.48750 | -2.85503 | 28725 ft | 474 kts | 27° |
| 2026-05-08 05:36 | 42.51628 | -2.83317 | 28941 ft | 474 kts | 27° |
| 2026-05-08 05:37 | 42.54510 | -2.81137 | 29164 ft | 474 kts | 27° |
| 2026-05-08 05:37 | 42.57350 | -2.78994 | 29380 ft | 473 kts | 27° |
| 2026-05-08 05:37 | 42.60230 | -2.76822 | 29597 ft | 473 kts | 26° |
| 2026-05-08 05:37 | 42.63099 | -2.74657 | 29810 ft | 472 kts | 27° |
| 2026-05-08 05:38 | 42.65969 | -2.72489 | 30029 ft | 472 kts | 26° |
| 2026-05-08 05:38 | 42.68838 | -2.70317 | 30229 ft | 472 kts | 26° |
| 2026-05-08 05:38 | 42.71701 | -2.68142 | 30436 ft | 471 kts | 26° |
| 2026-05-08 05:38 | 42.74562 | -2.65965 | 30646 ft | 471 kts | 27° |
| 2026-05-08 05:39 | 42.77420 | -2.63788 | 30860 ft | 470 kts | 26° |
| 2026-05-08 05:39 | 42.80269 | -2.61621 | 31077 ft | 469 kts | 26° |
| 2026-05-08 05:39 | 42.83123 | -2.59447 | 31281 ft | 469 kts | 26° |
| 2026-05-08 05:39 | 42.85968 | -2.57273 | 31488 ft | 468 kts | 26° |
| 2026-05-08 05:40 | 42.88808 | -2.55096 | 31693 ft | 468 kts | 26° |
| 2026-05-08 05:40 | 42.91646 | -2.52925 | 31890 ft | 467 kts | 26° |
| 2026-05-08 05:40 | 42.94446 | -2.50785 | 32082 ft | 466 kts | 26° |
| 2026-05-08 05:40 | 42.97273 | -2.48623 | 32268 ft | 466 kts | 26° |
| 2026-05-08 05:41 | 43.00099 | -2.46458 | 32477 ft | 465 kts | 26° |
| 2026-05-08 05:41 | 43.02919 | -2.44289 | 32661 ft | 465 kts | 26° |
| 2026-05-08 05:41 | 43.05732 | -2.42121 | 32831 ft | 464 kts | 26° |
| 2026-05-08 05:41 | 43.08547 | -2.39947 | 33016 ft | 464 kts | 26° |
| 2026-05-08 05:42 | 43.11350 | -2.37776 | 33195 ft | 462 kts | 26° |
| 2026-05-08 05:42 | 43.14142 | -2.35613 | 33318 ft | 462 kts | 25° |
| 2026-05-08 05:42 | 43.16945 | -2.33447 | 33457 ft | 462 kts | 26° |
| 2026-05-08 05:42 | 43.19745 | -2.31285 | 33640 ft | 462 kts | 26° |
| 2026-05-08 05:43 | 43.22545 | -2.29123 | 33837 ft | 461 kts | 26° |
| 2026-05-08 05:43 | 43.25339 | -2.26961 | 33976 ft | 461 kts | 26° |
| 2026-05-08 05:43 | 43.28130 | -2.24797 | 34148 ft | 460 kts | 26° |
| 2026-05-08 05:43 | 43.30915 | -2.22634 | 34336 ft | 459 kts | 25° |
| 2026-05-08 05:44 | 43.33665 | -2.20497 | 34490 ft | 459 kts | 26° |
| 2026-05-08 05:44 | 43.36442 | -2.18337 | 34634 ft | 459 kts | 26° |
| 2026-05-08 05:44 | 43.39220 | -2.16174 | 34789 ft | 458 kts | 26° |
| 2026-05-08 05:44 | 43.41993 | -2.14012 | 34905 ft | 459 kts | 26° |
| 2026-05-08 05:45 | 43.44777 | -2.11843 | 34918 ft | 461 kts | 26° |
| 2026-05-08 05:45 | 43.50360 | -2.07483 | 34915 ft | 461 kts | 26° |
| 2026-05-08 05:46 | 43.55940 | -2.03104 | 34915 ft | 461 kts | 26° |
| 2026-05-08 05:46 | 43.61517 | -1.98719 | 34915 ft | 461 kts | 26° |
| 2026-05-08 05:47 | 43.67084 | -1.94332 | 34916 ft | 461 kts | 26° |
| 2026-05-08 05:47 | 43.72626 | -1.89958 | 34927 ft | 462 kts | 26° |
| 2026-05-08 05:48 | 43.78201 | -1.85546 | 34940 ft | 461 kts | 26° |
| 2026-05-08 05:48 | 43.83773 | -1.81135 | 34942 ft | 461 kts | 26° |
| 2026-05-08 05:49 | 43.89345 | -1.76710 | 34946 ft | 461 kts | 26° |
| 2026-05-08 05:49 | 43.94914 | -1.72278 | 34942 ft | 461 kts | 26° |
| 2026-05-08 05:50 | 44.00483 | -1.67835 | 34943 ft | 461 kts | 26° |
| 2026-05-08 05:50 | 44.06038 | -1.63389 | 34943 ft | 461 kts | 26° |
| 2026-05-08 05:51 | 44.11598 | -1.58935 | 34948 ft | 461 kts | 26° |
| 2026-05-08 05:51 | 44.17122 | -1.54498 | 34953 ft | 461 kts | 26° |
| 2026-05-08 05:52 | 44.22674 | -1.50020 | 34956 ft | 461 kts | 26° |
| 2026-05-08 05:52 | 44.28231 | -1.45534 | 34957 ft | 461 kts | 26° |
| 2026-05-08 05:53 | 44.33792 | -1.41048 | 34961 ft | 461 kts | 26° |
| 2026-05-08 05:53 | 44.39347 | -1.36558 | 34967 ft | 461 kts | 26° |
| 2026-05-08 05:54 | 44.44903 | -1.32056 | 34967 ft | 461 kts | 26° |
| 2026-05-08 05:54 | 44.50448 | -1.27540 | 34969 ft | 461 kts | 26° |
| 2026-05-08 05:55 | 44.55990 | -1.23020 | 34966 ft | 461 kts | 26° |
| 2026-05-08 05:55 | 44.61489 | -1.18522 | 34967 ft | 461 kts | 27° |
| 2026-05-08 05:56 | 44.67023 | -1.13977 | 34965 ft | 461 kts | 27° |
| 2026-05-08 05:56 | 44.72552 | -1.09429 | 34967 ft | 460 kts | 27° |
| 2026-05-08 05:57 | 44.78079 | -1.04891 | 34968 ft | 460 kts | 27° |
| 2026-05-08 05:57 | 44.83603 | -1.00343 | 34968 ft | 460 kts | 27° |
| 2026-05-08 05:58 | 44.89130 | -0.95782 | 34971 ft | 460 kts | 27° |
| 2026-05-08 05:58 | 44.94635 | -0.91204 | 34975 ft | 459 kts | 27° |
| 2026-05-08 05:59 | 45.00110 | -0.86651 | 34975 ft | 459 kts | 27° |
| 2026-05-08 05:59 | 45.05615 | -0.82080 | 34973 ft | 459 kts | 27° |
| 2026-05-08 06:00 | 45.11121 | -0.77497 | 34975 ft | 459 kts | 27° |
| 2026-05-08 06:00 | 45.16623 | -0.72893 | 34979 ft | 459 kts | 27° |
| 2026-05-08 06:01 | 45.22120 | -0.68277 | 34978 ft | 459 kts | 27° |
| 2026-05-08 06:01 | 45.27618 | -0.63656 | 34979 ft | 459 kts | 27° |
| 2026-05-08 06:02 | 45.33119 | -0.59039 | 34983 ft | 459 kts | 27° |
| 2026-05-08 06:02 | 45.38611 | -0.54405 | 34984 ft | 459 kts | 27° |
| 2026-05-08 06:03 | 45.44105 | -0.49760 | 35000 ft | 459 kts | 27° |
| 2026-05-08 06:03 | 45.49560 | -0.45132 | 34996 ft | 459 kts | 28° |
| 2026-05-08 06:04 | 45.55047 | -0.40468 | 34986 ft | 459 kts | 28° |
| 2026-05-08 06:04 | 45.60535 | -0.35804 | 34994 ft | 459 kts | 28° |
| 2026-05-08 06:05 | 45.66019 | -0.31128 | 34985 ft | 458 kts | 28° |
| 2026-05-08 06:05 | 45.71429 | -0.26285 | 34985 ft | 459 kts | 30° |
| 2026-05-08 06:06 | 45.76745 | -0.21321 | 34987 ft | 459 kts | 30° |
| 2026-05-08 06:06 | 45.82096 | -0.16323 | 35000 ft | 459 kts | 30° |
| 2026-05-08 06:07 | 45.87463 | -0.11359 | 34999 ft | 459 kts | 30° |
| 2026-05-08 06:07 | 45.92841 | -0.06405 | 34988 ft | 459 kts | 30° |
| 2026-05-08 06:08 | 45.98215 | -0.01434 | 34986 ft | 459 kts | 30° |
| 2026-05-08 06:08 | 46.03573 | 0.03554 | 34985 ft | 459 kts | 31° |
| 2026-05-08 06:09 | 46.08946 | 0.08570 | 34984 ft | 460 kts | 31° |
| 2026-05-08 06:09 | 46.14310 | 0.13592 | 34995 ft | 460 kts | 30° |
| 2026-05-08 06:10 | 46.19686 | 0.18632 | 35003 ft | 460 kts | 30° |
| 2026-05-08 06:10 | 46.25052 | 0.23669 | 35000 ft | 460 kts | 30° |
| 2026-05-08 06:11 | 46.30383 | 0.28688 | 35004 ft | 460 kts | 31° |
| 2026-05-08 06:11 | 46.35746 | 0.33746 | 34997 ft | 460 kts | 31° |
| 2026-05-08 06:12 | 46.41111 | 0.38813 | 35000 ft | 460 kts | 31° |
| 2026-05-08 06:12 | 46.46471 | 0.43899 | 34993 ft | 461 kts | 31° |
| 2026-05-08 06:13 | 46.51828 | 0.48995 | 34994 ft | 461 kts | 31° |
| 2026-05-08 06:13 | 46.57458 | 0.53312 | 34995 ft | 456 kts | 17° |
| 2026-05-08 06:14 | 46.63591 | 0.55529 | 34987 ft | 454 kts | 10° |
| 2026-05-08 06:14 | 46.69756 | 0.57549 | 34988 ft | 455 kts | 11° |
| 2026-05-08 06:15 | 46.75896 | 0.59583 | 34989 ft | 456 kts | 11° |
| 2026-05-08 06:15 | 46.82078 | 0.61632 | 34994 ft | 456 kts | 11° |
| 2026-05-08 06:16 | 46.88267 | 0.63690 | 35002 ft | 456 kts | 11° |
| 2026-05-08 06:16 | 46.94460 | 0.65758 | 35002 ft | 456 kts | 11° |
| 2026-05-08 06:17 | 47.03724 | 0.69043 | 35000 ft | 458 kts | 18° |
| 2026-05-08 06:17 | 47.09398 | 0.73350 | 35009 ft | 461 kts | 30° |
| 2026-05-08 06:18 | 47.14887 | 0.78257 | 35001 ft | 461 kts | 29° |
| 2026-05-08 06:18 | 47.19462 | 0.82313 | 34996 ft | 462 kts | 29° |
| 2026-05-08 06:19 | 47.25852 | 0.88011 | 35012 ft | 462 kts | 30° |
| 2026-05-08 06:19 | 47.31341 | 0.92959 | 35022 ft | 463 kts | 30° |
| 2026-05-08 06:20 | 47.35912 | 0.97077 | 35028 ft | 463 kts | 30° |
| 2026-05-08 06:20 | 47.41421 | 1.02028 | 35037 ft | 463 kts | 30° |
| 2026-05-08 06:21 | 47.46921 | 1.06989 | 35038 ft | 463 kts | 30° |
| 2026-05-08 06:21 | 47.52437 | 1.11927 | 35042 ft | 463 kts | 28° |
| 2026-05-08 06:22 | 47.58117 | 1.16453 | 35039 ft | 463 kts | 26° |
| 2026-05-08 06:22 | 47.63867 | 1.20764 | 35036 ft | 463 kts | 25° |
| 2026-05-08 06:23 | 47.69593 | 1.25137 | 35032 ft | 463 kts | 26° |
| 2026-05-08 06:23 | 47.75291 | 1.29631 | 35035 ft | 463 kts | 27° |
| 2026-05-08 06:24 | 47.80941 | 1.34121 | 35036 ft | 463 kts | 27° |
| 2026-05-08 06:24 | 47.86628 | 1.38632 | 35038 ft | 463 kts | 27° |
| 2026-05-08 06:25 | 47.92325 | 1.43142 | 35039 ft | 463 kts | 27° |
| 2026-05-08 06:25 | 47.98025 | 1.47656 | 35037 ft | 463 kts | 27° |
| 2026-05-08 06:26 | 48.03721 | 1.52184 | 35040 ft | 464 kts | 27° |
| 2026-05-08 06:26 | 48.09413 | 1.56740 | 35041 ft | 464 kts | 27° |
| 2026-05-08 06:27 | 48.15102 | 1.61295 | 35046 ft | 464 kts | 27° |
| 2026-05-08 06:27 | 48.20765 | 1.65831 | 35049 ft | 464 kts | 27° |
| 2026-05-08 06:28 | 48.26465 | 1.70410 | 35050 ft | 465 kts | 27° |
| 2026-05-08 06:28 | 48.32160 | 1.75003 | 35051 ft | 464 kts | 27° |
| 2026-05-08 06:29 | 48.37863 | 1.79606 | 35054 ft | 465 kts | 27° |
| 2026-05-08 06:29 | 48.43554 | 1.84216 | 35058 ft | 465 kts | 27° |
| 2026-05-08 06:30 | 48.49244 | 1.88838 | 35062 ft | 465 kts | 27° |
| 2026-05-08 06:30 | 48.54944 | 1.93473 | 35066 ft | 465 kts | 27° |
| 2026-05-08 06:31 | 48.60631 | 1.98123 | 35067 ft | 464 kts | 27° |
| 2026-05-08 06:31 | 48.66309 | 2.02783 | 35070 ft | 465 kts | 28° |
| 2026-05-08 06:32 | 48.71704 | 2.08016 | 35066 ft | 465 kts | 41° |
| 2026-05-08 06:32 | 48.73941 | 2.11544 | 35067 ft | 465 kts | 52° |
| 2026-05-08 06:32 | 48.75758 | 2.15598 | 35066 ft | 465 kts | 62° |
| 2026-05-08 06:33 | 48.78011 | 2.24798 | 35061 ft | 464 kts | 75° |
| 2026-05-08 06:33 | 48.79704 | 2.34183 | 35057 ft | 465 kts | 75° |
| 2026-05-08 06:34 | 48.81407 | 2.43717 | 35070 ft | 465 kts | 75° |
| 2026-05-08 06:34 | 48.83081 | 2.53137 | 35085 ft | 465 kts | 75° |
| 2026-05-08 06:35 | 48.84768 | 2.62686 | 35085 ft | 465 kts | 76° |
| 2026-05-08 06:35 | 48.86418 | 2.72119 | 35094 ft | 465 kts | 76° |
| 2026-05-08 06:36 | 48.88078 | 2.81618 | 35095 ft | 466 kts | 76° |
| 2026-05-08 06:36 | 48.89745 | 2.91147 | 35096 ft | 466 kts | 76° |
| 2026-05-08 06:37 | 48.91403 | 3.00667 | 35097 ft | 466 kts | 76° |
| 2026-05-08 06:37 | 48.93040 | 3.10203 | 35098 ft | 466 kts | 76° |
| 2026-05-08 06:38 | 48.94665 | 3.19747 | 35095 ft | 466 kts | 76° |
| 2026-05-08 06:38 | 48.96289 | 3.29289 | 35097 ft | 466 kts | 76° |
| 2026-05-08 06:39 | 48.97912 | 3.38849 | 35095 ft | 466 kts | 76° |
| 2026-05-08 06:39 | 48.99531 | 3.48406 | 35099 ft | 466 kts | 76° |
| 2026-05-08 06:40 | 49.01130 | 3.57975 | 35098 ft | 466 kts | 76° |
| 2026-05-08 06:40 | 49.02720 | 3.67550 | 35096 ft | 466 kts | 76° |
| 2026-05-08 06:41 | 49.04298 | 3.77076 | 35098 ft | 467 kts | 76° |
| 2026-05-08 06:41 | 49.05874 | 3.86677 | 35098 ft | 467 kts | 77° |
| 2026-05-08 06:42 | 49.07447 | 3.96284 | 35101 ft | 467 kts | 77° |